createdAt,value
2022-12-11T00:01:25.494Z,0.30
2022-12-11T00:03:53.145Z,0.30
2022-12-11T00:06:23.162Z,0.20
2022-12-11T00:08:54.546Z,0.20
2022-12-11T00:11:23.471Z,0.30
2022-12-11T00:13:50.985Z,0.30
2022-12-11T00:16:22.444Z,0.20
2022-12-11T00:18:52.897Z,0.20
2022-12-11T00:21:20.321Z,0.30
2022-12-11T00:23:47.718Z,0.20
2022-12-11T00:26:16.355Z,0.30
2022-12-11T00:28:45.150Z,0.30
2022-12-11T00:31:18.101Z,0.20
2022-12-11T00:33:48.772Z,0.20
2022-12-11T00:36:23.405Z,0.20
2022-12-11T00:38:51.650Z,0.20
2022-12-11T00:41:19.832Z,0.20
2022-12-11T00:43:47.511Z,0.20
2022-12-11T00:46:16.072Z,0.20
2022-12-11T00:48:43.481Z,0.20
2022-12-11T00:51:10.993Z,0.20
2022-12-11T00:53:39.290Z,0.10
2022-12-11T00:56:18.637Z,-0.50
2022-12-11T00:58:48.296Z,0.30
2022-12-11T01:01:19.309Z,0.10
2022-12-11T01:03:47.347Z,0.10
2022-12-11T01:06:22.573Z,-0.10
2022-12-11T01:09:10.128Z,0.10
2022-12-11T01:11:37.924Z,0.00
2022-12-11T01:14:05.710Z,0.10
2022-12-11T01:16:33.415Z,0.00
2022-12-11T01:19:00.790Z,0.00
2022-12-11T01:21:28.485Z,0.00
2022-12-11T01:23:56.038Z,0.00
2022-12-11T01:26:23.704Z,0.00
2022-12-11T01:28:51.904Z,0.00
2022-12-11T01:31:20.355Z,0.00
2022-12-11T01:33:47.901Z,-0.10
2022-12-11T01:36:21.105Z,-0.10
2022-12-11T01:38:49.514Z,0.00
2022-12-11T01:41:18.644Z,0.00
2022-12-11T01:44:04.696Z,0.10
2022-12-11T01:46:34.195Z,0.00
2022-12-11T01:49:04.926Z,0.10
2022-12-11T01:51:35.834Z,0.10
2022-12-11T01:54:09.120Z,0.10
2022-12-11T01:56:38.206Z,0.10
2022-12-11T01:59:07.949Z,0.10
2022-12-11T02:01:55.402Z,0.00
2022-12-11T02:04:23.833Z,0.10
2022-12-11T02:06:52.102Z,0.20
2022-12-11T02:09:25.560Z,0.10
2022-12-11T02:12:11.850Z,0.00
2022-12-11T02:14:43.718Z,0.00
2022-12-11T02:17:49.229Z,0.00
2022-12-11T02:21:09.288Z,0.00
2022-12-11T02:24:01.810Z,0.00
2022-12-11T02:26:59.807Z,-0.40
2022-12-11T02:29:51.056Z,0.00
2022-12-11T02:32:37.160Z,-0.10
2022-12-11T02:35:21.908Z,-0.10
2022-12-11T02:37:54.849Z,-0.10
2022-12-11T02:40:26.441Z,-0.10
2022-12-11T02:42:56.265Z,-0.10
2022-12-11T02:45:26.353Z,-0.10
2022-12-11T02:47:54.866Z,-0.10
2022-12-11T02:50:23.946Z,-0.10
2022-12-11T02:52:56.442Z,-1.50
2022-12-11T02:55:26.890Z,-0.10
2022-12-11T02:58:13.484Z,-0.10
2022-12-11T03:00:41.284Z,-0.20
2022-12-11T03:03:09.314Z,-0.10
2022-12-11T03:05:36.690Z,0.00
2022-12-11T03:08:05.568Z,0.40
2022-12-11T03:10:33.566Z,-0.20
2022-12-11T03:13:01.403Z,-0.20
2022-12-11T03:15:41.704Z,-0.20
2022-12-11T03:18:18.295Z,0.20
2022-12-11T03:20:52.478Z,-0.20
2022-12-11T03:23:42.290Z,-0.20
2022-12-11T03:26:13.905Z,-0.30
2022-12-11T03:28:54.389Z,-0.30
2022-12-11T03:31:44.756Z,-0.30
2022-12-11T03:34:22.920Z,-0.30
2022-12-11T03:36:52.348Z,-0.30
2022-12-11T03:39:27.427Z,-0.30
2022-12-11T03:41:56.267Z,-0.30
2022-12-11T03:44:24.916Z,-0.30
2022-12-11T03:46:55.289Z,-0.30
2022-12-11T03:49:26.421Z,-0.30
2022-12-11T03:51:56.902Z,-0.30
2022-12-11T03:54:24.944Z,-0.30
2022-12-11T03:56:57.412Z,-0.40
2022-12-11T03:59:24.759Z,-0.40
2022-12-11T04:01:52.408Z,-0.50
2022-12-11T04:04:20.727Z,-0.40
2022-12-11T04:06:48.536Z,-0.40
2022-12-11T04:09:16.691Z,-0.50
2022-12-11T04:11:44.128Z,-0.60
2022-12-11T04:14:33.075Z,-0.40
2022-12-11T04:17:01.557Z,-0.40
2022-12-11T04:19:47.592Z,-0.40
2022-12-11T04:22:35.696Z,-0.30
2022-12-11T04:25:04.913Z,-0.30
2022-12-11T04:27:50.288Z,-0.30
2022-12-11T04:30:23.247Z,-0.20
2022-12-11T04:32:51.838Z,-0.20
2022-12-11T04:35:19.567Z,-0.10
2022-12-11T04:37:47.435Z,-0.10
2022-12-11T04:40:18.695Z,-0.10
2022-12-11T04:42:46.512Z,-0.10
2022-12-11T04:45:14.223Z,-0.10
2022-12-11T04:47:42.053Z,-0.10
2022-12-11T04:50:14.760Z,-0.60
2022-12-11T04:52:42.757Z,-0.10
2022-12-11T04:55:11.489Z,-0.10
2022-12-11T04:57:42.221Z,-0.10
2022-12-11T05:00:11.812Z,-0.10
2022-12-11T05:02:41.308Z,-0.20
2022-12-11T05:05:11.678Z,-0.20
2022-12-11T05:07:41.072Z,-0.20
2022-12-11T05:10:09.303Z,-1.00
2022-12-11T05:12:37.122Z,-0.10
2022-12-11T05:15:04.691Z,-0.10
2022-12-11T05:17:32.106Z,-0.20
2022-12-11T05:19:59.452Z,-0.10
2022-12-11T05:22:26.761Z,-0.20
2022-12-11T05:24:54.491Z,-0.10
2022-12-11T05:27:21.833Z,-0.20
2022-12-11T05:29:49.125Z,-0.30
2022-12-11T05:32:16.685Z,-0.30
2022-12-11T05:34:44.046Z,-0.30
2022-12-11T05:37:11.535Z,-0.30
2022-12-11T05:39:39.453Z,-0.30
2022-12-11T05:42:06.746Z,-0.60
2022-12-11T05:44:34.147Z,-0.60
2022-12-11T05:47:01.629Z,-0.20
2022-12-11T05:49:31.037Z,-0.20
2022-12-11T05:51:58.793Z,-0.10
2022-12-11T05:54:26.638Z,1.40
2022-12-11T05:56:55.161Z,0.00
2022-12-11T05:59:24.813Z,0.10
2022-12-11T06:01:52.412Z,0.10
2022-12-11T06:04:19.914Z,0.00
2022-12-11T06:06:47.286Z,0.00
2022-12-11T06:09:16.522Z,0.00
2022-12-11T06:11:43.852Z,-0.50
2022-12-11T06:14:11.695Z,-0.20
2022-12-11T06:16:39.157Z,-0.20
2022-12-11T06:19:06.767Z,0.80
2022-12-11T06:21:34.466Z,-0.10
2022-12-11T06:24:04.059Z,-0.30
2022-12-11T06:26:32.217Z,-0.30
2022-12-11T06:28:59.684Z,-0.30
2022-12-11T06:31:27.382Z,-0.20
2022-12-11T06:33:55.185Z,-0.30
2022-12-11T06:36:24.336Z,-0.40
2022-12-11T06:38:52.450Z,-0.30
2022-12-11T06:41:19.875Z,-0.30
2022-12-11T06:43:47.497Z,-0.20
2022-12-11T06:46:17.692Z,-0.10
2022-12-11T06:48:46.174Z,-0.10
2022-12-11T06:51:18.429Z,-0.20
2022-12-11T06:53:51.072Z,-0.20
2022-12-11T06:56:18.818Z,-0.20
2022-12-11T06:58:46.101Z,-0.10
2022-12-11T07:01:25.595Z,-0.10
2022-12-11T07:03:58.152Z,-0.20
2022-12-11T07:06:29.627Z,-0.20
2022-12-11T07:08:57.382Z,-0.20
2022-12-11T07:11:24.814Z,-0.20
2022-12-11T07:13:52.302Z,-0.20
2022-12-11T07:16:21.585Z,-0.20
2022-12-11T07:18:50.844Z,-0.20
2022-12-11T07:21:19.793Z,0.00
2022-12-11T07:23:48.821Z,-0.20
2022-12-11T07:26:19.601Z,-0.40
2022-12-11T07:28:47.462Z,-0.30
2022-12-11T07:31:18.242Z,-0.30
2022-12-11T07:33:47.264Z,-0.30
2022-12-11T07:36:16.333Z,-0.40
2022-12-11T07:38:43.718Z,-0.40
2022-12-11T07:41:13.235Z,-0.50
2022-12-11T07:43:41.562Z,-0.40
2022-12-11T07:46:21.404Z,-0.30
2022-12-11T07:48:49.517Z,-0.30
2022-12-11T07:51:27.648Z,-0.30
2022-12-11T07:54:00.895Z,-0.30
2022-12-11T07:56:30.349Z,-0.40
2022-12-11T07:59:00.227Z,-0.40
2022-12-11T08:01:29.407Z,-0.30
2022-12-11T08:03:57.846Z,0.70
2022-12-11T08:06:30.886Z,1.80
2022-12-11T08:08:59.860Z,-0.20
2022-12-11T08:11:28.153Z,-0.20
2022-12-11T08:13:56.068Z,-0.20
2022-12-11T08:16:23.543Z,-0.20
2022-12-11T08:18:59.767Z,1.20
2022-12-11T08:21:28.430Z,-0.10
2022-12-11T08:23:56.436Z,-0.10
2022-12-11T08:26:30.182Z,-0.10
2022-12-11T08:28:58.644Z,-0.20
2022-12-11T08:31:26.492Z,-0.20
2022-12-11T08:33:56.740Z,-0.10
2022-12-11T08:36:25.436Z,-0.10
2022-12-11T08:38:55.356Z,-0.10
2022-12-11T08:41:26.722Z,-0.10
2022-12-11T08:43:55.617Z,-0.10
2022-12-11T08:46:28.262Z,-0.10
2022-12-11T08:48:56.734Z,-0.20
2022-12-11T08:51:27.508Z,-0.10
2022-12-11T08:53:57.244Z,0.50
2022-12-11T08:56:25.412Z,0.20
2022-12-11T08:58:53.413Z,-0.10
2022-12-11T09:01:27.098Z,0.10
2022-12-11T09:03:56.751Z,-0.10
2022-12-11T09:06:27.828Z,0.00
2022-12-11T09:08:56.663Z,0.10
2022-12-11T09:11:27.010Z,-0.20
2022-12-11T09:13:54.802Z,0.00
2022-12-11T09:16:24.675Z,0.00
2022-12-11T09:18:54.895Z,0.00
2022-12-11T09:21:25.263Z,0.00
2022-12-11T09:23:58.092Z,0.30
2022-12-11T09:26:26.227Z,-0.10
2022-12-11T09:28:54.157Z,-0.20
2022-12-11T09:31:25.093Z,-0.20
2022-12-11T09:33:55.608Z,-0.20
2022-12-11T09:36:23.612Z,-0.20
2022-12-11T09:38:51.869Z,-0.20
2022-12-11T09:41:22.194Z,-0.10
2022-12-11T09:44:09.736Z,-0.10
2022-12-11T09:46:38.964Z,0.00
2022-12-11T09:49:24.636Z,0.00
2022-12-11T09:52:17.084Z,0.10
2022-12-11T09:54:52.696Z,0.10
2022-12-11T09:57:43.001Z,0.00
2022-12-11T10:00:20.433Z,0.10
2022-12-11T10:03:00.107Z,0.00
2022-12-11T10:06:02.611Z,0.10
2022-12-11T10:09:01.425Z,0.00
2022-12-11T10:11:38.974Z,0.10
2022-12-11T10:14:37.189Z,0.10
2022-12-11T10:17:10.401Z,0.10
2022-12-11T10:19:39.967Z,0.90
2022-12-11T10:22:20.912Z,0.10
2022-12-11T10:25:11.220Z,0.10
2022-12-11T10:27:41.003Z,0.00
2022-12-11T10:30:37.825Z,0.20
2022-12-11T10:33:07.891Z,0.20
2022-12-11T10:35:48.334Z,0.20
2022-12-11T10:38:17.343Z,0.20
2022-12-11T10:40:53.242Z,0.10
2022-12-11T10:43:20.721Z,0.20
2022-12-11T10:45:54.860Z,0.10
2022-12-11T10:48:23.247Z,0.10
2022-12-11T10:51:03.253Z,0.30
2022-12-11T10:53:32.035Z,0.20
2022-12-11T10:56:00.189Z,0.20
2022-12-11T10:58:34.618Z,0.20
2022-12-11T11:01:16.782Z,1.10
2022-12-11T11:03:53.186Z,0.40
2022-12-11T11:06:21.511Z,0.50
2022-12-11T11:08:51.678Z,0.60
2022-12-11T11:11:23.683Z,0.60
2022-12-11T11:13:52.108Z,1.20
2022-12-11T11:16:22.197Z,0.70
2022-12-11T11:18:55.384Z,0.60
2022-12-11T11:21:25.727Z,0.70
2022-12-11T11:23:54.318Z,0.70
2022-12-11T11:26:23.202Z,0.70
2022-12-11T11:28:56.495Z,0.70
2022-12-11T11:31:35.586Z,0.80
2022-12-11T11:34:07.908Z,0.80
2022-12-11T11:36:36.811Z,0.80
2022-12-11T11:39:16.309Z,0.90
2022-12-11T11:42:03.425Z,2.10
2022-12-11T11:44:41.078Z,1.00
2022-12-11T11:47:22.538Z,1.00
2022-12-11T11:50:12.211Z,1.00
2022-12-11T11:53:05.043Z,1.10
2022-12-11T11:55:51.902Z,1.10
2022-12-11T11:58:24.787Z,1.90
2022-12-11T12:00:55.018Z,1.20
2022-12-11T12:03:24.298Z,1.20
2022-12-11T12:06:01.225Z,1.20
2022-12-11T12:08:53.026Z,1.20
2022-12-11T12:11:40.576Z,1.20
2022-12-11T12:14:50.763Z,1.20
2022-12-11T12:17:09.672Z,1.40
2022-12-11T12:19:53.256Z,1.30
2022-12-11T12:22:32.351Z,1.30
2022-12-11T12:25:28.022Z,1.30
2022-12-11T12:28:25.853Z,1.30
2022-12-11T12:31:25.430Z,1.30
2022-12-11T12:33:59.035Z,1.30
2022-12-11T12:36:52.233Z,1.00
2022-12-11T12:39:25.585Z,1.40
2022-12-11T12:42:14.170Z,1.50
2022-12-11T12:45:03.800Z,1.50
2022-12-11T12:47:34.068Z,1.50
2022-12-11T12:50:04.013Z,1.60
2022-12-11T12:52:35.304Z,2.10
2022-12-11T12:55:23.180Z,1.60
2022-12-11T12:58:02.012Z,1.60
2022-12-11T13:00:39.441Z,1.50
2022-12-11T13:03:27.115Z,2.00
2022-12-11T13:05:57.276Z,1.50
2022-12-11T13:08:49.498Z,1.60
2022-12-11T13:11:19.640Z,1.60
2022-12-11T13:14:02.183Z,1.60
2022-12-11T13:16:40.824Z,1.60
2022-12-11T13:19:23.251Z,1.50
2022-12-11T13:22:14.525Z,1.50
2022-12-11T13:24:53.413Z,1.30
2022-12-11T13:27:35.917Z,1.50
2022-12-11T13:30:15.449Z,1.50
2022-12-11T13:32:58.897Z,1.60
2022-12-11T13:35:26.738Z,1.60
2022-12-11T13:37:55.336Z,4.00
2022-12-11T13:40:33.160Z,1.60
2022-12-11T13:43:05.116Z,1.60
2022-12-11T13:45:45.262Z,1.50
2022-12-11T13:48:27.852Z,1.50
2022-12-11T13:50:57.491Z,1.50
2022-12-11T13:53:24.933Z,1.60
2022-12-11T13:56:02.696Z,1.60
2022-12-11T13:58:33.920Z,1.70
2022-12-11T14:01:16.119Z,1.70
2022-12-11T14:04:07.561Z,1.60
2022-12-11T14:06:38.071Z,2.20
2022-12-11T14:09:06.728Z,1.60
2022-12-11T14:11:43.714Z,1.60
2022-12-11T14:14:24.533Z,1.60
2022-12-11T14:16:52.860Z,1.60
2022-12-11T14:19:22.416Z,1.60
2022-12-11T14:21:57.568Z,1.70
2022-12-11T14:24:25.236Z,1.70
2022-12-11T14:26:54.535Z,1.70
2022-12-11T14:29:31.172Z,1.80
2022-12-11T14:32:04.857Z,1.70
2022-12-11T14:34:37.031Z,1.80
2022-12-11T14:37:06.960Z,1.70
2022-12-11T14:39:47.849Z,2.50
2022-12-11T14:42:20.929Z,1.70
2022-12-11T14:44:54.473Z,1.80
2022-12-11T14:47:29.350Z,1.80
2022-12-11T14:50:01.187Z,1.70
2022-12-11T14:52:33.853Z,1.50
2022-12-11T14:55:15.629Z,1.80
2022-12-11T14:57:47.744Z,1.80
2022-12-11T15:00:41.625Z,1.80
2022-12-11T15:03:18.113Z,1.80
2022-12-11T15:05:56.768Z,1.90
2022-12-11T15:08:30.358Z,1.80
2022-12-11T15:11:14.021Z,1.80
2022-12-11T15:13:54.881Z,1.80
2022-12-11T15:16:25.284Z,1.80
2022-12-11T15:18:55.239Z,1.80
2022-12-11T15:21:34.238Z,1.80
2022-12-11T15:24:06.111Z,1.80
2022-12-11T15:26:45.909Z,1.80
2022-12-11T15:29:30.868Z,1.80
2022-12-11T15:32:09.315Z,1.80
2022-12-11T15:34:45.163Z,1.70
2022-12-11T15:37:25.765Z,1.70
2022-12-11T15:39:54.859Z,1.70
2022-12-11T15:42:36.586Z,1.70
2022-12-11T15:45:07.710Z,1.70
2022-12-11T15:47:34.982Z,1.70
2022-12-11T15:50:12.857Z,1.70
2022-12-11T15:52:40.388Z,2.80
2022-12-11T15:55:09.312Z,1.70
2022-12-11T15:57:37.192Z,1.60
2022-12-11T16:00:06.696Z,1.60
2022-12-11T16:02:34.093Z,1.70
2022-12-11T16:05:01.478Z,1.70
2022-12-11T16:07:28.755Z,1.70
2022-12-11T16:09:56.207Z,1.70
2022-12-11T16:12:23.517Z,1.60
2022-12-11T16:14:50.950Z,1.70
2022-12-11T16:17:18.361Z,1.60
2022-12-11T16:19:46.288Z,1.70
2022-12-11T16:22:14.597Z,1.70
2022-12-11T16:24:42.304Z,3.30
2022-12-11T16:27:09.982Z,1.70
2022-12-11T16:29:39.784Z,1.70
2022-12-11T16:32:08.422Z,1.70
2022-12-11T16:34:37.854Z,1.70
2022-12-11T16:37:09.508Z,1.80
2022-12-11T16:39:38.615Z,1.80
2022-12-11T16:42:06.870Z,1.80
2022-12-11T16:44:42.425Z,1.90
2022-12-11T16:47:14.235Z,1.80
2022-12-11T16:49:43.305Z,1.80
2022-12-11T16:52:11.023Z,3.80
2022-12-11T16:54:39.007Z,1.80
2022-12-11T16:57:06.365Z,1.80
2022-12-11T16:59:37.707Z,1.80
2022-12-11T17:02:05.473Z,1.80
2022-12-11T17:04:37.012Z,1.90
2022-12-11T17:07:05.146Z,1.80
2022-12-11T17:09:32.887Z,2.80
2022-12-11T17:12:00.314Z,3.20
2022-12-11T17:14:27.812Z,3.00
2022-12-11T17:16:56.725Z,2.90
2022-12-11T17:19:24.919Z,1.90
2022-12-11T17:21:54.355Z,1.90
2022-12-11T17:24:21.768Z,1.90
2022-12-11T17:26:49.079Z,1.90
2022-12-11T17:29:16.376Z,1.90
2022-12-11T17:31:43.724Z,2.00
2022-12-11T17:34:11.061Z,2.00
2022-12-11T17:36:38.702Z,2.00
2022-12-11T17:39:06.367Z,2.00
2022-12-11T17:41:33.628Z,2.00
2022-12-11T17:44:00.863Z,1.80
2022-12-11T17:46:28.313Z,2.10
2022-12-11T17:48:56.452Z,2.10
2022-12-11T17:51:24.759Z,2.10
2022-12-11T17:53:55.579Z,2.10
2022-12-11T17:56:24.100Z,2.00
2022-12-11T17:58:51.370Z,2.00
2022-12-11T18:01:18.939Z,2.00
2022-12-11T18:03:47.024Z,2.00
2022-12-11T18:06:15.954Z,2.10
2022-12-11T18:08:45.618Z,2.10
2022-12-11T18:11:18.884Z,2.10
2022-12-11T18:13:46.470Z,2.20
2022-12-11T18:16:17.458Z,2.10
2022-12-11T18:18:46.449Z,2.20
2022-12-11T18:21:16.883Z,2.20
2022-12-11T18:23:45.265Z,2.10
2022-12-11T18:26:14.527Z,2.10
2022-12-11T18:28:42.610Z,2.10
2022-12-11T18:31:11.169Z,2.20
2022-12-11T18:33:39.759Z,2.20
2022-12-11T18:36:07.642Z,2.20
2022-12-11T18:38:35.270Z,2.20
2022-12-11T18:41:07.923Z,2.20
2022-12-11T18:43:37.068Z,3.50
2022-12-11T18:46:14.232Z,2.20
2022-12-11T18:48:45.511Z,2.20
2022-12-11T18:51:17.328Z,2.20
2022-12-11T18:53:44.808Z,2.10
2022-12-11T18:56:15.805Z,1.90
2022-12-11T18:58:43.466Z,2.00
2022-12-11T19:01:23.105Z,2.10
2022-12-11T19:03:58.822Z,2.10
2022-12-11T19:06:32.078Z,2.10
2022-12-11T19:09:00.283Z,2.10
2022-12-11T19:11:29.493Z,2.10
2022-12-11T19:13:57.289Z,2.10
2022-12-11T19:16:33.550Z,2.10
2022-12-11T19:19:12.746Z,2.10
2022-12-11T19:21:40.470Z,1.80
2022-12-11T19:24:09.460Z,2.00
2022-12-11T19:26:37.172Z,2.00
2022-12-11T19:29:04.645Z,2.00
2022-12-11T19:31:32.704Z,2.90
2022-12-11T19:34:01.151Z,1.90
2022-12-11T19:36:30.789Z,1.80
2022-12-11T19:39:01.780Z,1.80
2022-12-11T19:41:31.235Z,1.90
2022-12-11T19:43:59.537Z,1.40
2022-12-11T19:46:27.683Z,1.80
2022-12-11T19:48:57.181Z,1.70
2022-12-11T19:51:33.931Z,1.80
2022-12-11T19:54:05.365Z,1.80
2022-12-11T19:56:33.728Z,1.80
2022-12-11T19:59:09.852Z,1.80
2022-12-11T20:01:38.237Z,3.20
2022-12-11T20:04:11.963Z,1.60
2022-12-11T20:06:42.866Z,1.60
2022-12-11T20:09:12.036Z,1.50
2022-12-11T20:11:41.248Z,1.40
2022-12-11T20:14:08.567Z,1.40
2022-12-11T20:19:23.325Z,1.40
2022-12-11T20:21:50.656Z,1.40
2022-12-11T20:24:18.053Z,1.50
2022-12-11T20:26:47.138Z,0.80
2022-12-11T20:29:14.850Z,1.60
2022-12-11T20:31:42.469Z,1.50
2022-12-11T20:34:09.804Z,1.40
2022-12-11T20:36:37.149Z,1.50
2022-12-11T20:39:05.217Z,1.40
2022-12-11T20:41:32.892Z,1.50
2022-12-11T20:44:00.310Z,1.40
2022-12-11T20:46:28.065Z,1.40
2022-12-11T20:48:58.573Z,1.30
2022-12-11T20:51:26.752Z,1.40
2022-12-11T20:53:59.339Z,1.40
2022-12-11T20:56:30.891Z,1.40
2022-12-11T20:58:59.500Z,1.40
2022-12-11T21:01:29.813Z,1.60
2022-12-11T21:03:57.956Z,1.40
2022-12-11T21:06:31.719Z,1.40
2022-12-11T21:09:00.767Z,1.40
2022-12-11T21:11:28.551Z,1.30
2022-12-11T21:13:56.102Z,1.50
2022-12-11T21:16:23.671Z,1.40
2022-12-11T21:18:52.010Z,1.50
2022-12-11T21:21:19.420Z,1.60
2022-12-11T21:23:46.714Z,1.50
2022-12-11T21:26:14.041Z,1.60
2022-12-11T21:28:41.378Z,1.60
2022-12-11T21:31:12.150Z,2.40
2022-12-11T21:33:39.700Z,1.60
2022-12-11T21:36:09.304Z,1.60
2022-12-11T21:38:36.704Z,1.50
2022-12-11T21:41:16.153Z,1.50
2022-12-11T21:44:14.525Z,1.40
2022-12-11T21:46:32.642Z,1.40
2022-12-11T21:49:00.138Z,1.50
2022-12-11T21:51:37.094Z,1.50
2022-12-11T21:54:10.270Z,1.60
2022-12-11T21:56:37.689Z,1.40
2022-12-11T21:59:05.478Z,1.70
2022-12-11T22:01:40.944Z,2.30
2022-12-11T22:04:10.298Z,1.40
2022-12-11T22:06:37.816Z,1.30
2022-12-11T22:09:05.317Z,1.30
2022-12-11T22:11:34.659Z,1.30
2022-12-11T22:14:02.805Z,1.30
2022-12-11T22:16:30.899Z,1.20
2022-12-11T22:18:58.227Z,1.20
2022-12-11T22:21:25.779Z,1.20
2022-12-11T22:23:53.627Z,1.30
2022-12-11T22:26:25.146Z,0.50
2022-12-11T22:28:53.550Z,1.30
2022-12-11T22:31:23.648Z,1.30
2022-12-11T22:33:53.732Z,1.30
2022-12-11T22:36:25.684Z,1.30
2022-12-11T22:38:53.327Z,1.30
2022-12-11T22:41:27.649Z,1.30
2022-12-11T22:43:55.742Z,1.20
2022-12-11T22:46:25.796Z,1.20
2022-12-11T22:48:53.377Z,1.20
2022-12-11T22:51:21.408Z,1.20
2022-12-11T22:53:48.694Z,1.30
2022-12-11T22:56:16.846Z,1.30
2022-12-11T22:58:44.175Z,1.40
2022-12-11T23:01:14.591Z,1.30
2022-12-11T23:03:42.106Z,1.30
2022-12-11T23:06:12.442Z,1.30
2022-12-11T23:08:41.003Z,1.20
2022-12-11T23:11:19.115Z,1.20
2022-12-11T23:13:46.420Z,1.30
2022-12-11T23:16:13.845Z,1.30
2022-12-11T23:18:41.775Z,1.40
2022-12-11T23:21:10.121Z,1.40
2022-12-11T23:23:38.956Z,1.40
2022-12-11T23:26:09.286Z,1.40
2022-12-11T23:28:36.955Z,1.40
2022-12-11T23:31:05.025Z,1.40
2022-12-11T23:33:32.475Z,1.40
2022-12-11T23:36:00.134Z,1.30
2022-12-11T23:38:27.449Z,1.40
2022-12-11T23:40:55.608Z,1.30
2022-12-11T23:43:23.154Z,1.40
2022-12-11T23:45:50.578Z,1.30
2022-12-11T23:48:18.552Z,1.30
2022-12-11T23:50:46.374Z,1.40
2022-12-11T23:53:13.605Z,1.40
2022-12-11T23:55:42.895Z,1.40
2022-12-11T23:58:10.949Z,1.40
